Time;durP1;ratioP1;P1;durP2;ratioP2;P2;SDS_P1;SDS_P2;PMS_P1;PMS_P2;Temp;Humidity;BMP_temperature;BMP_pressure;BME280_temperature;BME280_humidity;BME280_pressure;Samples;Min_cycle;Max_cycle;Signal;HPM_P1;HPM_P2
2021/06/02 00:04:45;;;;;;;4.23;3.17;;;;;;;;;;13068565;22;20544;-74
2021/06/02 00:09:48;;;;;;;6.87;3.40;;;;;;;;;;13097029;22;20200;-73
2021/06/02 00:14:52;;;;;;;8.73;3.43;;;;;;;;;;13073342;22;20184;-73
2021/06/02 00:19:54;;;;;;;5.60;3.53;;;;;;;;;;13072239;22;20173;-72
2021/06/02 00:25:00;;;;;;;6.13;3.30;;;;;;;;;;13095245;22;20748;-72
2021/06/02 00:30:05;;;;;;;7.20;3.50;;;;;;;;;;13074998;22;20473;-72
2021/06/02 00:35:08;;;;;;;5.10;3.40;;;;;;;;;;13072895;22;20667;-73
2021/06/02 00:40:19;;;;;;;7.27;3.63;;;;;;;;;;13076166;22;20327;-73
2021/06/02 00:45:23;;;;;;;9.37;3.50;;;;;;;;;;13094108;22;20207;-73
2021/06/02 00:50:26;;;;;;;9.13;4.20;;;;;;;;;;13072591;22;20327;-73
2021/06/02 00:55:28;;;;;;;8.57;3.80;;;;;;;;;;13076665;22;20259;-72
2021/06/02 01:00:32;;;;;;;5.97;3.90;;;;;;;;;;13079415;22;20180;-73
2021/06/02 01:05:34;;;;;;;7.00;4.17;;;;;;;;;;13072945;22;20201;-73
2021/06/02 01:10:37;;;;;;;7.13;4.47;;;;;;;;;;13076710;22;20180;-72
2021/06/02 01:15:41;;;;;;;6.23;4.50;;;;;;;;;;13099007;22;20564;-71
2021/06/02 01:20:43;;;;;;;6.93;4.87;;;;;;;;;;13074529;22;20291;-72
2021/06/02 01:25:47;;;;;;;6.73;4.70;;;;;;;;;;13076285;22;20209;-73
2021/06/02 01:30:51;;;;;;;8.17;4.83;;;;;;;;;;13076501;22;20173;-73
2021/06/02 01:36:01;;;;;;;7.63;4.80;;;;;;;;;;13071740;22;20560;-71
2021/06/02 01:41:09;;;;;;;11.17;5.43;;;;;;;;;;13099853;22;20169;-72
2021/06/02 01:46:27;;;;;;;9.23;5.50;;;;;;;;;;13093420;22;20676;-72
2021/06/02 01:51:49;;;;;;;11.90;5.57;;;;;;;;;;13094174;22;20171;-72
2021/06/02 01:57:00;;;;;;;9.83;6.27;;;;;;;;;;13095401;22;20729;-72
2021/06/02 02:02:16;;;;;;;8.80;5.83;;;;;;;;;;13096116;22;20165;-71
2021/06/02 02:07:25;;;;;;;11.60;6.50;;;;;;;;;;13082004;22;20772;-74
2021/06/02 02:12:33;;;;;;;9.77;6.50;;;;;;;;;;13098079;22;20170;-72
2021/06/02 02:17:49;;;;;;;9.67;6.63;;;;;;;;;;13096444;22;20168;-72
2021/06/02 02:22:59;;;;;;;9.93;6.20;;;;;;;;;;13099847;22;20630;-72
2021/06/02 02:28:08;;;;;;;10.23;6.50;;;;;;;;;;13066381;22;20685;-73
2021/06/02 02:33:17;;;;;;;9.27;6.50;;;;;;;;;;13089603;22;20532;-72
2021/06/02 02:38:25;;;;;;;10.17;6.60;;;;;;;;;;13092648;22;20203;-72
2021/06/02 02:43:42;;;;;;;10.17;6.70;;;;;;;;;;13090511;22;20244;-72
2021/06/02 02:48:51;;;;;;;8.90;6.70;;;;;;;;;;13040873;22;20707;-73
2021/06/02 02:54:01;;;;;;;10.30;6.63;;;;;;;;;;13080830;22;20208;-72
2021/06/02 02:59:04;;;;;;;12.90;7.03;;;;;;;;;;13096376;22;20506;-73
2021/06/02 03:04:09;;;;;;;10.93;6.67;;;;;;;;;;13087696;22;20165;-74
2021/06/02 03:09:16;;;;;;;10.87;6.60;;;;;;;;;;13074709;22;20263;-74
2021/06/02 03:14:20;;;;;;;9.63;6.87;;;;;;;;;;13064127;22;20264;-72
2021/06/02 03:19:31;;;;;;;14.20;6.93;;;;;;;;;;13095933;22;20187;-73
2021/06/02 03:24:56;;;;;;;10.70;6.87;;;;;;;;;;13096091;22;20531;-72
2021/06/02 03:30:04;;;;;;;9.40;6.80;;;;;;;;;;13093870;22;20227;-74
2021/06/02 03:35:12;;;;;;;9.80;6.90;;;;;;;;;;13091887;22;20165;-73
2021/06/02 03:40:21;;;;;;;9.47;6.80;;;;;;;;;;13096425;22;20604;-73
2021/06/02 03:45:35;;;;;;;10.00;6.77;;;;;;;;;;13095081;22;20575;-73
2021/06/02 03:50:45;;;;;;;9.00;6.83;;;;;;;;;;13091491;22;20885;-73
2021/06/02 03:55:50;;;;;;;11.50;6.80;;;;;;;;;;13076155;22;20193;-73
2021/06/02 04:00:55;;;;;;;13.50;7.17;;;;;;;;;;13093358;22;20502;-71
2021/06/02 04:06:01;;;;;;;12.00;7.23;;;;;;;;;;13070530;22;20205;-72
2021/06/02 04:11:11;;;;;;;14.30;6.93;;;;;;;;;;13095579;22;20165;-73
2021/06/02 04:16:15;;;;;;;11.87;7.50;;;;;;;;;;13090326;22;20602;-72
2021/06/02 04:21:19;;;;;;;13.63;8.17;;;;;;;;;;13046652;22;20192;-72
2021/06/02 04:26:22;;;;;;;11.50;7.10;;;;;;;;;;13092692;22;20650;-74
2021/06/02 04:31:25;;;;;;;12.50;8.00;;;;;;;;;;13093866;22;20177;-75
2021/06/02 04:36:30;;;;;;;10.47;7.07;;;;;;;;;;13092722;22;20176;-74
2021/06/02 04:41:33;;;;;;;13.70;8.10;;;;;;;;;;13092653;22;20172;-74
2021/06/02 04:46:35;;;;;;;12.23;7.97;;;;;;;;;;13069833;22;20204;-79
2021/06/02 04:52:00;;;;;;;12.47;7.73;;;;;;;;;;13096098;22;20912;-78
2021/06/02 04:57:18;;;;;;;12.60;7.30;;;;;;;;;;13095530;22;20165;-76
2021/06/02 05:02:39;;;;;;;13.17;7.87;;;;;;;;;;13097438;22;20636;-76
2021/06/02 05:08:05;;;;;;;11.20;7.03;;;;;;;;;;13077631;22;20708;-75
2021/06/02 05:13:28;;;;;;;12.27;7.70;;;;;;;;;;13098323;22;20180;-76
2021/06/02 05:18:44;;;;;;;14.57;7.53;;;;;;;;;;13061098;22;20184;-75
2021/06/02 05:24:10;;;;;;;11.90;8.10;;;;;;;;;;13101478;22;20198;-76
2021/06/02 05:29:36;;;;;;;17.77;8.20;;;;;;;;;;13094523;22;20197;-76
2021/06/02 05:34:53;;;;;;;14.90;7.87;;;;;;;;;;13038468;22;20512;-77
2021/06/02 05:40:13;;;;;;;14.20;8.27;;;;;;;;;;13057365;22;20180;-77
2021/06/02 05:45:30;;;;;;;16.13;8.37;;;;;;;;;;13101550;22;20230;-78
2021/06/02 05:50:53;;;;;;;12.30;8.73;;;;;;;;;;13095273;22;20175;-77
2021/06/02 05:56:09;;;;;;;13.37;8.43;;;;;;;;;;13081899;22;20344;-79
2021/06/02 06:01:26;;;;;;;16.83;8.20;;;;;;;;;;13101659;22;20670;-76
2021/06/02 06:06:31;;;;;;;12.03;7.63;;;;;;;;;;13079324;22;20204;-76
2021/06/02 06:11:48;;;;;;;10.00;6.90;;;;;;;;;;13076873;22;20177;-76
2021/06/02 06:17:01;;;;;;;9.10;6.43;;;;;;;;;;13097167;22;20184;-78
2021/06/02 06:22:22;;;;;;;8.50;6.27;;;;;;;;;;13100723;22;20169;-75
2021/06/02 06:27:27;;;;;;;7.57;5.83;;;;;;;;;;13101673;22;20729;-76
2021/06/02 06:32:32;;;;;;;9.43;6.67;;;;;;;;;;13094772;22;20602;-77
2021/06/02 06:37:37;;;;;;;14.80;5.70;;;;;;;;;;13085108;22;20173;-75
2021/06/02 06:42:41;;;;;;;8.40;5.60;;;;;;;;;;13099383;22;20477;-76
2021/06/02 06:47:47;;;;;;;8.53;5.20;;;;;;;;;;13076114;22;20267;-76
2021/06/02 06:52:50;;;;;;;6.77;5.13;;;;;;;;;;13099482;22;20604;-75
2021/06/02 06:57:54;;;;;;;7.17;4.80;;;;;;;;;;13080029;22;20501;-75
2021/06/02 07:02:58;;;;;;;6.27;4.60;;;;;;;;;;13097431;22;20966;-76
2021/06/02 07:08:02;;;;;;;5.83;4.47;;;;;;;;;;13102000;22;20453;-76
2021/06/02 07:13:06;;;;;;;8.77;4.80;;;;;;;;;;13099183;22;20564;-76
2021/06/02 07:18:11;;;;;;;6.23;4.57;;;;;;;;;;13098991;22;20208;-76
2021/06/02 07:23:13;;;;;;;7.60;4.73;;;;;;;;;;13077369;22;20969;-76
2021/06/02 07:28:21;;;;;;;6.63;4.80;;;;;;;;;;13077483;22;20208;-77
2021/06/02 07:33:24;;;;;;;5.87;4.30;;;;;;;;;;13096654;22;20628;-75
2021/06/02 07:38:27;;;;;;;7.13;4.73;;;;;;;;;;13079774;22;20179;-76
2021/06/02 07:43:29;;;;;;;6.67;4.37;;;;;;;;;;13078659;22;20179;-76
2021/06/02 07:48:33;;;;;;;7.00;4.50;;;;;;;;;;13076590;22;20236;-76
2021/06/02 07:53:36;;;;;;;7.43;4.40;;;;;;;;;;13101500;22;20737;-76
2021/06/02 07:58:39;;;;;;;7.93;4.53;;;;;;;;;;13097545;22;20172;-76
2021/06/02 08:03:43;;;;;;;6.90;4.10;;;;;;;;;;13097482;22;20169;-77
2021/06/02 08:08:46;;;;;;;7.00;4.40;;;;;;;;;;13076158;22;20205;-77
2021/06/02 08:13:49;;;;;;;5.73;4.37;;;;;;;;;;13100143;22;20755;-76
2021/06/02 08:18:53;;;;;;;5.13;3.93;;;;;;;;;;13076185;22;20226;-76
2021/06/02 08:23:56;;;;;;;5.97;4.03;;;;;;;;;;13101030;22;21000;-76
2021/06/02 08:28:58;;;;;;;7.40;4.07;;;;;;;;;;13098048;22;20204;-75
2021/06/02 08:34:02;;;;;;;5.47;4.03;;;;;;;;;;13096594;22;20641;-77
2021/06/02 08:39:06;;;;;;;6.23;3.97;;;;;;;;;;13100144;22;20180;-76
2021/06/02 08:44:08;;;;;;;7.13;3.93;;;;;;;;;;13098328;22;20177;-76
2021/06/02 08:49:13;;;;;;;5.87;3.93;;;;;;;;;;13095961;22;20193;-77
2021/06/02 08:54:16;;;;;;;5.33;3.70;;;;;;;;;;13100510;22;20189;-77
2021/06/02 08:59:18;;;;;;;5.47;3.70;;;;;;;;;;13097912;22;20263;-77
2021/06/02 09:04:23;;;;;;;7.37;3.63;;;;;;;;;;13097426;22;20188;-77
2021/06/02 09:09:25;;;;;;;7.70;3.67;;;;;;;;;;13097954;22;20200;-77
2021/06/02 09:14:29;;;;;;;4.93;3.70;;;;;;;;;;13101557;22;20177;-77
2021/06/02 09:19:37;;;;;;;4.50;3.70;;;;;;;;;;13099208;22;20180;-76
2021/06/02 09:24:50;;;;;;;3.83;3.30;;;;;;;;;;13083447;22;20173;-77
2021/06/02 09:29:54;;;;;;;4.97;3.43;;;;;;;;;;13098577;22;20723;-76
2021/06/02 09:35:00;;;;;;;4.43;3.40;;;;;;;;;;13078586;22;20627;-76
2021/06/02 09:40:03;;;;;;;7.33;3.70;;;;;;;;;;13102343;22;20177;-76
2021/06/02 09:45:06;;;;;;;5.63;3.50;;;;;;;;;;13080597;22;20183;-77
2021/06/02 09:50:11;;;;;;;7.00;3.50;;;;;;;;;;13076055;22;20930;-77
2021/06/02 09:55:14;;;;;;;6.33;3.43;;;;;;;;;;13102689;22;20197;-75
2021/06/02 10:00:17;;;;;;;3.67;3.20;;;;;;;;;;13081850;22;20735;-77
2021/06/02 10:05:24;;;;;;;6.00;3.20;;;;;;;;;;13101834;22;20260;-78
2021/06/02 10:10:27;;;;;;;5.90;3.23;;;;;;;;;;13081344;22;20204;-78
2021/06/02 10:15:30;;;;;;;6.73;3.30;;;;;;;;;;13100383;22;20254;-75
2021/06/02 10:20:34;;;;;;;4.13;3.07;;;;;;;;;;13098375;22;20169;-76
2021/06/02 10:25:37;;;;;;;5.47;3.30;;;;;;;;;;13103001;22;20177;-77
2021/06/02 10:30:39;;;;;;;3.77;3.17;;;;;;;;;;13097625;22;20207;-76
2021/06/02 10:35:43;;;;;;;3.87;2.90;;;;;;;;;;13098758;22;20185;-76
2021/06/02 10:40:47;;;;;;;3.60;2.80;;;;;;;;;;13100745;22;20180;-76
2021/06/02 10:45:50;;;;;;;4.43;3.10;;;;;;;;;;13079310;22;20521;-77
2021/06/02 10:50:55;;;;;;;3.77;2.93;;;;;;;;;;13084786;22;20215;-77
2021/06/02 10:55:58;;;;;;;8.37;3.00;;;;;;;;;;13078690;22;20200;-76
2021/06/02 11:01:16;;;;;;;5.83;2.80;;;;;;;;;;13078645;22;20648;-76
2021/06/02 11:06:33;;;;;;;4.10;2.70;;;;;;;;;;13082727;22;20444;-76
2021/06/02 11:11:36;;;;;;;2.73;2.53;;;;;;;;;;13079947;22;20199;-76
2021/06/02 11:16:40;;;;;;;4.27;2.43;;;;;;;;;;13075874;22;20252;-76
2021/06/02 11:21:57;;;;;;;3.23;2.60;;;;;;;;;;13080782;22;20544;-79
2021/06/02 11:27:26;;;;;;;3.70;2.57;;;;;;;;;;13079884;22;20172;-78
2021/06/02 11:32:30;;;;;;;3.97;2.63;;;;;;;;;;13075868;22;20165;-77
2021/06/02 11:37:34;;;;;;;2.53;2.30;;;;;;;;;;13076432;22;20276;-75
2021/06/02 11:42:39;;;;;;;3.87;2.43;;;;;;;;;;13078728;22;20173;-76
2021/06/02 11:47:43;;;;;;;3.20;2.30;;;;;;;;;;13076099;22;20204;-77
2021/06/02 11:52:54;;;;;;;4.10;2.50;;;;;;;;;;13079212;22;20223;-76
2021/06/02 11:57:57;;;;;;;3.47;2.57;;;;;;;;;;13096269;22;20183;-77
2021/06/02 12:03:00;;;;;;;4.40;2.40;;;;;;;;;;13074018;22;20173;-77
2021/06/02 12:08:04;;;;;;;3.67;2.80;;;;;;;;;;13075239;22;20208;-79
2021/06/02 12:13:12;;;;;;;3.33;2.50;;;;;;;;;;13098861;22;21109;-77
2021/06/02 12:18:28;;;;;;;2.83;2.50;;;;;;;;;;13095858;22;20522;-76
2021/06/02 12:23:32;;;;;;;3.27;2.30;;;;;;;;;;13098859;22;20223;-75
2021/06/02 12:28:43;;;;;;;3.47;2.57;;;;;;;;;;13074876;22;20205;-76
2021/06/02 12:33:45;;;;;;;2.90;2.60;;;;;;;;;;13074471;22;20176;-76
2021/06/02 12:38:49;;;;;;;3.27;2.40;;;;;;;;;;13077204;22;20205;-76
2021/06/02 12:43:51;;;;;;;2.97;2.50;;;;;;;;;;13078457;22;20176;-75
2021/06/02 12:48:54;;;;;;;3.13;2.40;;;;;;;;;;13095901;22;20208;-77
2021/06/02 12:53:58;;;;;;;2.70;2.50;;;;;;;;;;13075043;22;20193;-76
2021/06/02 12:59:00;;;;;;;3.00;2.47;;;;;;;;;;13095546;22;20184;-76
2021/06/02 13:04:03;;;;;;;2.93;2.70;;;;;;;;;;13075736;22;20173;-78
2021/06/02 13:09:10;;;;;;;4.27;2.60;;;;;;;;;;13099194;22;20669;-75
2021/06/02 13:14:13;;;;;;;3.27;2.90;;;;;;;;;;13077495;22;20700;-75
2021/06/02 13:19:15;;;;;;;3.80;2.80;;;;;;;;;;13074755;22;20173;-77
2021/06/02 13:24:19;;;;;;;3.90;2.40;;;;;;;;;;13076522;22;20215;-76
2021/06/02 13:29:22;;;;;;;4.77;2.80;;;;;;;;;;13072554;22;20209;-77
2021/06/02 13:34:27;;;;;;;3.23;2.60;;;;;;;;;;13095990;22;20180;-78
2021/06/02 13:39:31;;;;;;;2.90;2.60;;;;;;;;;;13070521;22;20204;-85
2021/06/02 13:44:33;;;;;;;4.50;2.60;;;;;;;;;;13079397;22;20204;-81
2021/06/02 13:49:37;;;;;;;5.13;2.80;;;;;;;;;;13085025;22;20234;-83
2021/06/02 13:54:41;;;;;;;2.97;2.67;;;;;;;;;;13069911;22;20474;-76
2021/06/02 13:59:45;;;;;;;5.70;2.70;;;;;;;;;;13072007;22;20732;-76
2021/06/02 14:52:37;;;;;;;3.90;2.80;;;;;;;;;;13077095;22;20563;-78
2021/06/02 14:57:40;;;;;;;5.43;2.70;;;;;;;;;;13074600;22;20177;-78
2021/06/02 15:02:42;;;;;;;5.00;2.67;;;;;;;;;;13076415;22;20177;-76
2021/06/02 15:07:46;;;;;;;4.23;2.60;;;;;;;;;;13078064;22;20201;-77
2021/06/02 15:12:49;;;;;;;3.90;2.60;;;;;;;;;;13079354;22;20257;-77
2021/06/02 15:17:53;;;;;;;4.47;2.80;;;;;;;;;;13097351;22;20238;-77
2021/06/02 15:22:57;;;;;;;3.60;2.63;;;;;;;;;;13102683;22;20183;-76
2021/06/02 15:28:02;;;;;;;3.93;2.80;;;;;;;;;;13097495;22;20693;-77
2021/06/02 15:33:05;;;;;;;3.87;2.67;;;;;;;;;;13099226;22;20173;-77
2021/06/02 15:38:11;;;;;;;3.67;2.43;;;;;;;;;;13099254;22;20557;-77
2021/06/02 15:43:15;;;;;;;3.60;2.50;;;;;;;;;;13080134;22;20168;-77
2021/06/02 15:48:19;;;;;;;4.67;2.30;;;;;;;;;;13098199;22;20722;-76
2021/06/02 15:53:24;;;;;;;3.73;2.67;;;;;;;;;;13078253;22;20205;-77
2021/06/02 15:58:27;;;;;;;3.53;2.77;;;;;;;;;;13076457;22;20215;-76
2021/06/02 16:03:29;;;;;;;4.03;2.90;;;;;;;;;;13095814;22;20173;-78
2021/06/02 16:08:33;;;;;;;4.93;2.67;;;;;;;;;;13076428;22;20696;-77
2021/06/02 16:13:36;;;;;;;4.23;2.90;;;;;;;;;;13099852;22;20173;-77
2021/06/02 16:18:38;;;;;;;3.70;2.60;;;;;;;;;;13095246;22;20173;-76
2021/06/02 16:23:42;;;;;;;4.97;2.60;;;;;;;;;;13098626;22;20724;-78
2021/06/02 16:28:47;;;;;;;3.30;2.90;;;;;;;;;;13100125;22;20200;-79
2021/06/02 16:33:50;;;;;;;3.07;2.63;;;;;;;;;;13074839;22;20257;-77
2021/06/02 16:38:55;;;;;;;3.07;2.67;;;;;;;;;;13098389;22;20180;-77
2021/06/02 16:44:14;;;;;;;4.43;2.80;;;;;;;;;;13096232;22;20173;-78
2021/06/02 16:49:16;;;;;;;3.50;2.67;;;;;;;;;;13095237;22;20201;-78
2021/06/02 16:54:20;;;;;;;2.80;2.47;;;;;;;;;;13097318;22;20201;-76
2021/06/02 16:59:23;;;;;;;4.57;2.40;;;;;;;;;;13099554;22;20161;-77
2021/06/02 17:04:26;;;;;;;4.40;2.60;;;;;;;;;;13068358;22;20173;-79
2021/06/02 17:09:31;;;;;;;2.97;2.30;;;;;;;;;;13093306;22;20201;-77
2021/06/02 17:14:33;;;;;;;3.30;2.47;;;;;;;;;;13088169;22;20834;-79
2021/06/02 17:19:36;;;;;;;3.23;2.40;;;;;;;;;;13065938;22;20173;-78
2021/06/02 17:24:41;;;;;;;4.97;2.60;;;;;;;;;;13068146;22;20173;-80
2021/06/02 17:29:46;;;;;;;4.73;2.13;;;;;;;;;;13068823;22;20488;-76
2021/06/02 17:34:49;;;;;;;3.90;2.47;;;;;;;;;;13066954;22;20599;-75
2021/06/02 17:39:53;;;;;;;4.37;2.43;;;;;;;;;;13076777;22;20169;-78
2021/06/02 17:44:55;;;;;;;2.83;2.40;;;;;;;;;;13072686;22;20173;-76
2021/06/02 17:49:58;;;;;;;3.43;2.27;;;;;;;;;;13096597;22;20205;-76
2021/06/02 17:55:04;;;;;;;4.20;2.23;;;;;;;;;;13082788;22;20542;-76
2021/06/02 18:00:07;;;;;;;4.17;2.40;;;;;;;;;;13103061;22;20173;-79
2021/06/02 18:05:10;;;;;;;5.73;3.43;;;;;;;;;;13092372;22;20179;-78
2021/06/02 18:10:15;;;;;;;3.33;2.77;;;;;;;;;;13097887;22;20204;-79
2021/06/02 18:15:19;;;;;;;4.87;2.20;;;;;;;;;;13067823;22;20173;-79
2021/06/02 18:20:21;;;;;;;2.87;2.37;;;;;;;;;;13067882;22;20177;-79
2021/06/02 18:25:25;;;;;;;4.57;2.47;;;;;;;;;;13070450;22;20173;-79
2021/06/02 18:30:29;;;;;;;7.63;2.83;;;;;;;;;;13092168;22;20224;-81
2021/06/02 18:35:31;;;;;;;5.67;2.20;;;;;;;;;;13067460;22;20618;-78
2021/06/02 18:40:37;;;;;;;5.53;2.63;;;;;;;;;;13070391;22;20541;-79
2021/06/02 18:45:40;;;;;;;4.17;2.33;;;;;;;;;;13091729;22;20173;-81
2021/06/02 18:50:43;;;;;;;2.37;2.13;;;;;;;;;;13070212;22;20295;-81
2021/06/02 18:55:47;;;;;;;3.93;2.27;;;;;;;;;;13068007;22;20200;-79
2021/06/02 19:00:50;;;;;;;4.50;2.27;;;;;;;;;;13073442;22;20911;-79
2021/06/02 19:05:54;;;;;;;2.83;2.20;;;;;;;;;;13090079;22;20210;-79
2021/06/02 19:11:01;;;;;;;3.30;2.50;;;;;;;;;;13070688;22;20212;-79
2021/06/02 19:16:04;;;;;;;2.93;2.17;;;;;;;;;;13086187;22;20630;-78
2021/06/02 19:21:06;;;;;;;4.50;2.53;;;;;;;;;;13069712;22;20180;-79
2021/06/02 19:26:10;;;;;;;3.87;2.43;;;;;;;;;;13091963;22;20172;-85
2021/06/02 19:31:12;;;;;;;4.07;2.60;;;;;;;;;;13071439;22;20304;-86
2021/06/02 19:36:15;;;;;;;3.73;2.60;;;;;;;;;;13076022;22;20181;-85
2021/06/02 19:41:19;;;;;;;3.73;2.60;;;;;;;;;;13094755;22;20653;-86
2021/06/02 19:46:22;;;;;;;3.87;2.90;;;;;;;;;;13094404;22;20913;-86
2021/06/02 19:51:24;;;;;;;5.17;3.00;;;;;;;;;;13097924;22;20250;-86
2021/06/02 19:56:36;;;;;;;5.20;3.07;;;;;;;;;;13092092;22;20187;-86
2021/06/02 20:01:38;;;;;;;6.43;3.10;;;;;;;;;;13092934;22;20176;-85
2021/06/02 20:06:41;;;;;;;6.90;3.37;;;;;;;;;;13069490;22;20181;-86
2021/06/02 20:11:46;;;;;;;4.17;3.30;;;;;;;;;;13090284;22;20228;-85
2021/06/02 20:16:49;;;;;;;6.07;3.50;;;;;;;;;;13087114;22;20604;-86
2021/06/02 20:21:51;;;;;;;7.73;3.57;;;;;;;;;;13092891;22;20448;-86
2021/06/02 20:26:55;;;;;;;5.10;3.70;;;;;;;;;;13071056;22;20172;-85
2021/06/02 20:37:20;;;;;;;9.13;4.27;;;;;;;;;;13091578;22;20173;-85
2021/06/02 20:42:24;;;;;;;8.00;4.10;;;;;;;;;;13075982;22;20203;-86
2021/06/02 20:47:26;;;;;;;5.20;4.10;;;;;;;;;;13092357;22;20515;-85
2021/06/02 20:52:29;;;;;;;6.17;4.10;;;;;;;;;;13075005;22;21018;-86
2021/06/02 20:57:34;;;;;;;6.83;4.50;;;;;;;;;;13075637;22;20456;-85
2021/06/02 21:02:36;;;;;;;5.60;4.00;;;;;;;;;;13070983;22;20169;-85
2021/06/02 21:07:39;;;;;;;5.93;4.10;;;;;;;;;;13095970;22;20173;-85
2021/06/02 21:12:43;;;;;;;8.80;4.37;;;;;;;;;;13075228;22;21004;-85
2021/06/02 21:17:48;;;;;;;10.13;5.00;;;;;;;;;;13073294;22;20180;-87
2021/06/02 21:22:52;;;;;;;10.23;4.33;;;;;;;;;;13076707;22;20199;-87
2021/06/02 21:27:55;;;;;;;7.00;4.50;;;;;;;;;;13096770;22;20199;-86
2021/06/02 21:33:00;;;;;;;7.37;4.30;;;;;;;;;;13073832;22;20276;-86
2021/06/02 21:38:02;;;;;;;10.47;4.60;;;;;;;;;;13096290;22;20641;-87
2021/06/02 21:43:06;;;;;;;7.93;4.50;;;;;;;;;;13096887;22;20169;-87
2021/06/02 21:48:10;;;;;;;7.43;4.20;;;;;;;;;;13073641;22;20169;-87
2021/06/02 21:53:13;;;;;;;7.53;4.20;;;;;;;;;;13097359;22;21113;-86
2021/06/02 21:58:17;;;;;;;6.27;4.90;;;;;;;;;;13075528;22;20227;-86
2021/06/02 22:03:20;;;;;;;5.93;3.93;;;;;;;;;;13071857;22;20458;-85
2021/06/02 22:08:22;;;;;;;6.13;3.80;;;;;;;;;;13073588;22;20251;-85
2021/06/02 22:13:26;;;;;;;5.23;3.60;;;;;;;;;;13099322;22;20525;-85
2021/06/02 22:18:30;;;;;;;5.60;3.30;;;;;;;;;;13070632;22;20180;-86
2021/06/02 22:23:33;;;;;;;4.60;2.93;;;;;;;;;;13076516;22;20188;-85
2021/06/02 22:28:36;;;;;;;4.10;3.10;;;;;;;;;;13073497;22;20173;-84
2021/06/02 22:33:39;;;;;;;4.97;3.07;;;;;;;;;;13073633;22;20790;-85
2021/06/02 22:38:41;;;;;;;5.73;3.37;;;;;;;;;;13074549;22;20972;-86
2021/06/02 22:43:45;;;;;;;6.60;3.20;;;;;;;;;;13076249;22;20646;-85
2021/06/02 22:48:48;;;;;;;5.43;2.80;;;;;;;;;;13074893;22;20173;-88
2021/06/02 22:53:50;;;;;;;4.53;2.97;;;;;;;;;;13099111;22;20213;-85
2021/06/02 22:58:54;;;;;;;6.00;3.10;;;;;;;;;;13075681;22;20182;-87
2021/06/02 23:03:56;;;;;;;6.10;3.50;;;;;;;;;;13091844;22;20177;-85
2021/06/02 23:08:59;;;;;;;9.07;3.03;;;;;;;;;;13098503;22;20541;-85
2021/06/02 23:14:03;;;;;;;3.10;2.80;;;;;;;;;;13094584;22;20200;-88
2021/06/02 23:19:05;;;;;;;3.63;3.00;;;;;;;;;;13090281;22;20181;-86
2021/06/02 23:24:08;;;;;;;4.27;3.00;;;;;;;;;;13094524;22;20238;-85
2021/06/02 23:29:12;;;;;;;6.30;2.80;;;;;;;;;;13070078;22;20509;-85
2021/06/02 23:34:14;;;;;;;7.27;3.03;;;;;;;;;;13091160;22;20173;-84
2021/06/02 23:39:16;;;;;;;4.67;2.83;;;;;;;;;;13095098;22;20172;-85
2021/06/02 23:44:20;;;;;;;4.13;3.20;;;;;;;;;;13093226;22;20177;-85
2021/06/02 23:49:22;;;;;;;5.30;3.00;;;;;;;;;;13068882;22;20181;-88
2021/06/02 23:54:25;;;;;;;4.23;3.20;;;;;;;;;;13095186;22;20204;-85
2021/06/02 23:59:29;;;;;;;3.77;2.80;;;;;;;;;;13073310;22;20184;-84
